sensor_id;sensor_type;location;lat;lon;timestamp;P1;durP1;ratioP1;P2;durP2;ratioP2
75435;SDS011;64014;53.432;14.534;2023-01-13T00:00:57;2.63;;;1.25;;
75435;SDS011;64014;53.432;14.534;2023-01-13T00:03:23;2.25;;;0.63;;
75435;SDS011;64014;53.432;14.534;2023-01-13T00:05:49;4.10;;;2.20;;
75435;SDS011;64014;53.432;14.534;2023-01-13T00:08:15;2.65;;;0.95;;
75435;SDS011;64014;53.432;14.534;2023-01-13T00:10:44;2.55;;;1.23;;
75435;SDS011;64014;53.432;14.534;2023-01-13T00:13:12;2.45;;;0.82;;
75435;SDS011;64014;53.432;14.534;2023-01-13T00:15:38;2.35;;;1.27;;
75435;SDS011;64014;53.432;14.534;2023-01-13T00:18:04;3.58;;;2.47;;
75435;SDS011;64014;53.432;14.534;2023-01-13T00:20:29;3.28;;;1.80;;
75435;SDS011;64014;53.432;14.534;2023-01-13T00:22:55;3.05;;;1.05;;
75435;SDS011;64014;53.432;14.534;2023-01-13T00:25:22;1.98;;;0.75;;
75435;SDS011;64014;53.432;14.534;2023-01-13T00:27:48;3.08;;;1.10;;
75435;SDS011;64014;53.432;14.534;2023-01-13T00:30:14;2.35;;;0.70;;
75435;SDS011;64014;53.432;14.534;2023-01-13T00:32:40;11.02;;;1.80;;
75435;SDS011;64014;53.432;14.534;2023-01-13T00:35:06;3.30;;;2.05;;
75435;SDS011;64014;53.432;14.534;2023-01-13T00:37:34;2.85;;;1.00;;
75435;SDS011;64014;53.432;14.534;2023-01-13T00:40:02;1.95;;;0.75;;
75435;SDS011;64014;53.432;14.534;2023-01-13T00:42:29;3.78;;;1.23;;
75435;SDS011;64014;53.432;14.534;2023-01-13T00:45:13;1.95;;;0.70;;
75435;SDS011;64014;53.432;14.534;2023-01-13T00:47:39;2.33;;;1.33;;
75435;SDS011;64014;53.432;14.534;2023-01-13T00:50:05;2.72;;;2.25;;
75435;SDS011;64014;53.432;14.534;2023-01-13T00:52:32;2.03;;;0.80;;
75435;SDS011;64014;53.432;14.534;2023-01-13T00:54:57;1.98;;;0.75;;
75435;SDS011;64014;53.432;14.534;2023-01-13T00:57:24;1.83;;;0.70;;
75435;SDS011;64014;53.432;14.534;2023-01-13T00:59:50;2.00;;;0.70;;
75435;SDS011;64014;53.432;14.534;2023-01-13T01:02:16;2.10;;;0.95;;
75435;SDS011;64014;53.432;14.534;2023-01-13T01:04:42;1.38;;;0.60;;
75435;SDS011;64014;53.432;14.534;2023-01-13T01:07:07;1.27;;;0.40;;
75435;SDS011;64014;53.432;14.534;2023-01-13T01:09:33;1.83;;;0.60;;
75435;SDS011;64014;53.432;14.534;2023-01-13T01:11:59;1.92;;;1.02;;
75435;SDS011;64014;53.432;14.534;2023-01-13T01:14:26;2.72;;;0.82;;
75435;SDS011;64014;53.432;14.534;2023-01-13T01:16:52;2.65;;;2.15;;
75435;SDS011;64014;53.432;14.534;2023-01-13T01:19:18;2.22;;;0.70;;
75435;SDS011;64014;53.432;14.534;2023-01-13T01:21:44;2.55;;;0.50;;
75435;SDS011;64014;53.432;14.534;2023-01-13T01:24:10;3.08;;;2.75;;
75435;SDS011;64014;53.432;14.534;2023-01-13T01:26:36;2.53;;;0.88;;
75435;SDS011;64014;53.432;14.534;2023-01-13T01:29:02;4.53;;;3.33;;
75435;SDS011;64014;53.432;14.534;2023-01-13T01:31:29;3.13;;;1.02;;
75435;SDS011;64014;53.432;14.534;2023-01-13T01:33:56;2.40;;;0.80;;
75435;SDS011;64014;53.432;14.534;2023-01-13T01:36:23;2.45;;;0.75;;
75435;SDS011;64014;53.432;14.534;2023-01-13T01:38:57;2.05;;;0.73;;
75435;SDS011;64014;53.432;14.534;2023-01-13T01:41:25;2.33;;;1.02;;
75435;SDS011;64014;53.432;14.534;2023-01-13T01:46:32;1.92;;;0.95;;
75435;SDS011;64014;53.432;14.534;2023-01-13T01:48:59;2.40;;;1.15;;
75435;SDS011;64014;53.432;14.534;2023-01-13T01:51:41;2.05;;;0.68;;
75435;SDS011;64014;53.432;14.534;2023-01-13T01:54:11;2.95;;;2.35;;
75435;SDS011;64014;53.432;14.534;2023-01-13T01:56:39;2.10;;;0.95;;
75435;SDS011;64014;53.432;14.534;2023-01-13T01:59:07;3.58;;;1.00;;
75435;SDS011;64014;53.432;14.534;2023-01-13T02:01:33;2.13;;;0.40;;
75435;SDS011;64014;53.432;14.534;2023-01-13T02:04:10;1.75;;;0.57;;
75435;SDS011;64014;53.432;14.534;2023-01-13T02:06:39;3.67;;;1.33;;
75435;SDS011;64014;53.432;14.534;2023-01-13T02:09:06;2.15;;;1.08;;
75435;SDS011;64014;53.432;14.534;2023-01-13T02:11:33;1.83;;;0.60;;
75435;SDS011;64014;53.432;14.534;2023-01-13T02:14:22;3.03;;;0.65;;
75435;SDS011;64014;53.432;14.534;2023-01-13T02:17:07;1.40;;;0.45;;
75435;SDS011;64014;53.432;14.534;2023-01-13T02:35:49;1.00;;;0.20;;
75435;SDS011;64014;53.432;14.534;2023-01-13T02:38:23;1.63;;;1.33;;
75435;SDS011;64014;53.432;14.534;2023-01-13T02:40:59;2.13;;;0.50;;
75435;SDS011;64014;53.432;14.534;2023-01-13T02:43:50;2.47;;;0.32;;
75435;SDS011;64014;53.432;14.534;2023-01-13T02:49:03;1.70;;;0.30;;
75435;SDS011;64014;53.432;14.534;2023-01-13T02:51:32;1.30;;;0.47;;
75435;SDS011;64014;53.432;14.534;2023-01-13T02:54:00;1.35;;;0.35;;
75435;SDS011;64014;53.432;14.534;2023-01-13T02:56:37;1.85;;;0.32;;
75435;SDS011;64014;53.432;14.534;2023-01-13T02:59:06;0.95;;;0.38;;
75435;SDS011;64014;53.432;14.534;2023-01-13T03:01:33;1.10;;;0.32;;
75435;SDS011;64014;53.432;14.534;2023-01-13T03:04:09;1.08;;;0.85;;
75435;SDS011;64014;53.432;14.534;2023-01-13T03:09:32;1.20;;;0.50;;
75435;SDS011;64014;53.432;14.534;2023-01-13T03:15:26;0.95;;;0.22;;
75435;SDS011;64014;53.432;14.534;2023-01-13T03:20:31;1.65;;;0.43;;
75435;SDS011;64014;53.432;14.534;2023-01-13T03:25:36;1.05;;;0.32;;
75435;SDS011;64014;53.432;14.534;2023-01-13T03:30:43;2.10;;;0.40;;
75435;SDS011;64014;53.432;14.534;2023-01-13T03:33:17;1.00;;;0.45;;
75435;SDS011;64014;53.432;14.534;2023-01-13T03:35:51;1.27;;;0.20;;
75435;SDS011;64014;53.432;14.534;2023-01-13T03:38:27;1.08;;;0.45;;
75435;SDS011;64014;53.432;14.534;2023-01-13T03:40:58;1.25;;;0.50;;
75435;SDS011;64014;53.432;14.534;2023-01-13T03:43:33;1.20;;;0.32;;
75435;SDS011;64014;53.432;14.534;2023-01-13T03:46:31;1.50;;;0.43;;
75435;SDS011;64014;53.432;14.534;2023-01-13T03:49:17;2.88;;;0.47;;
75435;SDS011;64014;53.432;14.534;2023-01-13T03:51:47;1.33;;;0.88;;
75435;SDS011;64014;53.432;14.534;2023-01-13T03:54:20;2.55;;;0.22;;
75435;SDS011;64014;53.432;14.534;2023-01-13T03:56:50;3.42;;;0.60;;
75435;SDS011;64014;53.432;14.534;2023-01-13T03:59:22;0.82;;;0.20;;
75435;SDS011;64014;53.432;14.534;2023-01-13T04:05:05;2.00;;;0.52;;
75435;SDS011;64014;53.432;14.534;2023-01-13T04:10:03;2.30;;;0.38;;
75435;SDS011;64014;53.432;14.534;2023-01-13T04:12:34;1.00;;;0.50;;
75435;SDS011;64014;53.432;14.534;2023-01-13T04:15:27;1.55;;;0.35;;
75435;SDS011;64014;53.432;14.534;2023-01-13T04:18:09;1.23;;;0.68;;
75435;SDS011;64014;53.432;14.534;2023-01-13T04:20:45;2.15;;;0.20;;
75435;SDS011;64014;53.432;14.534;2023-01-13T04:23:13;1.05;;;0.22;;
75435;SDS011;64014;53.432;14.534;2023-01-13T04:25:40;2.10;;;0.45;;
75435;SDS011;64014;53.432;14.534;2023-01-13T04:28:06;1.23;;;0.30;;
75435;SDS011;64014;53.432;14.534;2023-01-13T04:30:32;1.20;;;0.30;;
75435;SDS011;64014;53.432;14.534;2023-01-13T04:32:58;1.25;;;0.52;;
75435;SDS011;64014;53.432;14.534;2023-01-13T04:35:24;1.83;;;1.65;;
75435;SDS011;64014;53.432;14.534;2023-01-13T04:37:50;1.45;;;0.80;;
75435;SDS011;64014;53.432;14.534;2023-01-13T04:40:15;1.95;;;0.65;;
75435;SDS011;64014;53.432;14.534;2023-01-13T04:42:44;2.50;;;0.47;;
75435;SDS011;64014;53.432;14.534;2023-01-13T04:45:10;2.25;;;0.50;;
75435;SDS011;64014;53.432;14.534;2023-01-13T04:47:36;2.08;;;0.38;;
75435;SDS011;64014;53.432;14.534;2023-01-13T04:50:02;2.90;;;0.52;;
75435;SDS011;64014;53.432;14.534;2023-01-13T04:52:29;1.48;;;0.43;;
75435;SDS011;64014;53.432;14.534;2023-01-13T04:54:54;1.30;;;0.65;;
75435;SDS011;64014;53.432;14.534;2023-01-13T04:57:20;1.25;;;0.40;;
75435;SDS011;64014;53.432;14.534;2023-01-13T04:59:46;1.50;;;0.45;;
75435;SDS011;64014;53.432;14.534;2023-01-13T05:02:12;1.40;;;0.40;;
75435;SDS011;64014;53.432;14.534;2023-01-13T05:04:44;1.50;;;0.20;;
75435;SDS011;64014;53.432;14.534;2023-01-13T05:07:11;0.70;;;0.13;;
75435;SDS011;64014;53.432;14.534;2023-01-13T05:09:38;2.55;;;0.65;;
75435;SDS011;64014;53.432;14.534;2023-01-13T05:12:03;1.05;;;0.32;;
75435;SDS011;64014;53.432;14.534;2023-01-13T05:14:48;1.75;;;0.40;;
75435;SDS011;64014;53.432;14.534;2023-01-13T05:17:32;1.45;;;1.27;;
75435;SDS011;64014;53.432;14.534;2023-01-13T05:19:58;1.98;;;0.25;;
75435;SDS011;64014;53.432;14.534;2023-01-13T05:22:24;0.90;;;0.45;;
75435;SDS011;64014;53.432;14.534;2023-01-13T05:25:08;1.33;;;1.23;;
75435;SDS011;64014;53.432;14.534;2023-01-13T05:27:48;0.68;;;0.13;;
75435;SDS011;64014;53.432;14.534;2023-01-13T05:30:16;0.90;;;0.40;;
75435;SDS011;64014;53.432;14.534;2023-01-13T05:32:42;0.88;;;0.20;;
75435;SDS011;64014;53.432;14.534;2023-01-13T05:35:08;1.83;;;0.60;;
75435;SDS011;64014;53.432;14.534;2023-01-13T05:37:34;0.90;;;0.45;;
75435;SDS011;64014;53.432;14.534;2023-01-13T05:40:00;0.63;;;0.20;;
75435;SDS011;64014;53.432;14.534;2023-01-13T05:42:46;0.57;;;0.32;;
75435;SDS011;64014;53.432;14.534;2023-01-13T05:45:30;1.55;;;0.22;;
75435;SDS011;64014;53.432;14.534;2023-01-13T05:47:57;1.27;;;0.20;;
75435;SDS011;64014;53.432;14.534;2023-01-13T05:50:23;0.75;;;0.30;;
75435;SDS011;64014;53.432;14.534;2023-01-13T05:52:49;1.90;;;0.50;;
75435;SDS011;64014;53.432;14.534;2023-01-13T05:55:14;0.93;;;0.17;;
75435;SDS011;64014;53.432;14.534;2023-01-13T05:57:40;1.00;;;0.55;;
75435;SDS011;64014;53.432;14.534;2023-01-13T06:00:06;1.35;;;0.30;;
75435;SDS011;64014;53.432;14.534;2023-01-13T06:02:33;1.70;;;1.02;;
75435;SDS011;64014;53.432;14.534;2023-01-13T06:04:58;0.47;;;0.20;;
75435;SDS011;64014;53.432;14.534;2023-01-13T06:07:24;0.60;;;0.35;;
75435;SDS011;64014;53.432;14.534;2023-01-13T06:09:50;0.98;;;0.30;;
75435;SDS011;64014;53.432;14.534;2023-01-13T06:12:16;0.60;;;0.28;;
75435;SDS011;64014;53.432;14.534;2023-01-13T06:14:42;2.05;;;0.45;;
75435;SDS011;64014;53.432;14.534;2023-01-13T06:17:08;0.50;;;0.10;;
75435;SDS011;64014;53.432;14.534;2023-01-13T06:19:35;0.85;;;0.13;;
75435;SDS011;64014;53.432;14.534;2023-01-13T06:22:18;0.55;;;0.30;;
75435;SDS011;64014;53.432;14.534;2023-01-13T06:24:57;1.15;;;0.20;;
75435;SDS011;64014;53.432;14.534;2023-01-13T06:27:23;1.50;;;0.40;;
75435;SDS011;64014;53.432;14.534;2023-01-13T06:29:49;1.45;;;0.30;;
75435;SDS011;64014;53.432;14.534;2023-01-13T06:32:16;2.20;;;1.77;;
75435;SDS011;64014;53.432;14.534;2023-01-13T06:34:46;1.92;;;0.50;;
75435;SDS011;64014;53.432;14.534;2023-01-13T06:37:16;2.08;;;0.65;;
75435;SDS011;64014;53.432;14.534;2023-01-13T06:39:45;2.75;;;1.08;;
75435;SDS011;64014;53.432;14.534;2023-01-13T06:42:15;1.13;;;0.25;;
75435;SDS011;64014;53.432;14.534;2023-01-13T06:44:59;1.33;;;0.40;;
75435;SDS011;64014;53.432;14.534;2023-01-13T06:47:25;1.25;;;0.73;;
75435;SDS011;64014;53.432;14.534;2023-01-13T06:49:50;1.65;;;0.73;;
75435;SDS011;64014;53.432;14.534;2023-01-13T06:52:17;1.55;;;0.90;;
75435;SDS011;64014;53.432;14.534;2023-01-13T06:54:43;0.90;;;0.38;;
75435;SDS011;64014;53.432;14.534;2023-01-13T06:57:08;1.42;;;0.28;;
75435;SDS011;64014;53.432;14.534;2023-01-13T06:59:34;1.15;;;0.30;;
75435;SDS011;64014;53.432;14.534;2023-01-13T07:02:00;0.82;;;0.20;;
75435;SDS011;64014;53.432;14.534;2023-01-13T07:04:26;2.42;;;0.30;;
75435;SDS011;64014;53.432;14.534;2023-01-13T07:06:52;1.15;;;0.20;;
75435;SDS011;64014;53.432;14.534;2023-01-13T07:09:18;2.08;;;0.22;;
75435;SDS011;64014;53.432;14.534;2023-01-13T07:11:44;3.58;;;2.30;;
75435;SDS011;64014;53.432;14.534;2023-01-13T07:14:09;1.65;;;0.75;;
75435;SDS011;64014;53.432;14.534;2023-01-13T07:16:53;1.90;;;0.63;;
75435;SDS011;64014;53.432;14.534;2023-01-13T07:19:19;2.13;;;0.70;;
75435;SDS011;64014;53.432;14.534;2023-01-13T07:21:48;2.22;;;0.60;;
75435;SDS011;64014;53.432;14.534;2023-01-13T07:24:15;1.63;;;0.38;;
75435;SDS011;64014;53.432;14.534;2023-01-13T07:26:41;2.78;;;0.63;;
75435;SDS011;64014;53.432;14.534;2023-01-13T07:29:07;0.82;;;0.63;;
75435;SDS011;64014;53.432;14.534;2023-01-13T07:31:33;1.45;;;0.43;;
75435;SDS011;64014;53.432;14.534;2023-01-13T07:33:59;1.35;;;0.55;;
75435;SDS011;64014;53.432;14.534;2023-01-13T07:36:24;1.50;;;0.35;;
75435;SDS011;64014;53.432;14.534;2023-01-13T07:38:50;2.25;;;0.32;;
75435;SDS011;64014;53.432;14.534;2023-01-13T07:41:16;2.72;;;0.88;;
75435;SDS011;64014;53.432;14.534;2023-01-13T07:44:00;1.40;;;0.52;;
75435;SDS011;64014;53.432;14.534;2023-01-13T07:46:30;1.38;;;0.50;;
75435;SDS011;64014;53.432;14.534;2023-01-13T07:48:56;2.58;;;1.08;;
75435;SDS011;64014;53.432;14.534;2023-01-13T07:51:22;3.17;;;0.75;;
75435;SDS011;64014;53.432;14.534;2023-01-13T07:53:48;2.92;;;0.70;;
75435;SDS011;64014;53.432;14.534;2023-01-13T07:56:14;1.67;;;0.32;;
75435;SDS011;64014;53.432;14.534;2023-01-13T07:58:40;1.85;;;0.63;;
75435;SDS011;64014;53.432;14.534;2023-01-13T08:01:07;2.63;;;1.85;;
75435;SDS011;64014;53.432;14.534;2023-01-13T08:03:37;1.35;;;0.20;;
75435;SDS011;64014;53.432;14.534;2023-01-13T08:06:03;2.95;;;0.57;;
75435;SDS011;64014;53.432;14.534;2023-01-13T08:08:30;2.33;;;0.70;;
75435;SDS011;64014;53.432;14.534;2023-01-13T08:11:00;1.58;;;0.32;;
75435;SDS011;64014;53.432;14.534;2023-01-13T08:13:26;2.47;;;0.55;;
75435;SDS011;64014;53.432;14.534;2023-01-13T08:15:57;3.20;;;1.95;;
75435;SDS011;64014;53.432;14.534;2023-01-13T08:18:30;1.98;;;1.23;;
75435;SDS011;64014;53.432;14.534;2023-01-13T08:21:00;2.58;;;0.80;;
75435;SDS011;64014;53.432;14.534;2023-01-13T08:23:28;6.22;;;2.25;;
75435;SDS011;64014;53.432;14.534;2023-01-13T08:25:54;3.38;;;1.23;;
75435;SDS011;64014;53.432;14.534;2023-01-13T08:28:24;2.33;;;0.85;;
75435;SDS011;64014;53.432;14.534;2023-01-13T08:30:50;1.90;;;0.77;;
75435;SDS011;64014;53.432;14.534;2023-01-13T08:33:18;2.58;;;0.73;;
75435;SDS011;64014;53.432;14.534;2023-01-13T08:35:44;2.85;;;1.00;;
75435;SDS011;64014;53.432;14.534;2023-01-13T08:38:10;3.45;;;0.65;;
75435;SDS011;64014;53.432;14.534;2023-01-13T08:40:37;7.93;;;2.92;;
75435;SDS011;64014;53.432;14.534;2023-01-13T08:43:04;5.97;;;2.17;;
75435;SDS011;64014;53.432;14.534;2023-01-13T08:45:30;3.97;;;1.15;;
75435;SDS011;64014;53.432;14.534;2023-01-13T08:47:56;1.95;;;1.02;;
75435;SDS011;64014;53.432;14.534;2023-01-13T08:50:22;3.38;;;0.70;;
75435;SDS011;64014;53.432;14.534;2023-01-13T08:52:48;3.08;;;0.70;;
75435;SDS011;64014;53.432;14.534;2023-01-13T08:55:13;4.63;;;1.92;;
75435;SDS011;64014;53.432;14.534;2023-01-13T08:57:39;3.10;;;0.85;;
75435;SDS011;64014;53.432;14.534;2023-01-13T09:00:05;2.35;;;0.75;;
75435;SDS011;64014;53.432;14.534;2023-01-13T09:02:32;4.75;;;1.55;;
75435;SDS011;64014;53.432;14.534;2023-01-13T09:04:58;4.43;;;1.30;;
75435;SDS011;64014;53.432;14.534;2023-01-13T09:07:29;3.30;;;1.60;;
75435;SDS011;64014;53.432;14.534;2023-01-13T09:09:55;2.97;;;1.05;;
75435;SDS011;64014;53.432;14.534;2023-01-13T09:12:21;4.07;;;0.98;;
75435;SDS011;64014;53.432;14.534;2023-01-13T09:15:06;3.67;;;2.40;;
75435;SDS011;64014;53.432;14.534;2023-01-13T09:17:32;3.17;;;1.48;;
75435;SDS011;64014;53.432;14.534;2023-01-13T09:19:59;3.35;;;0.75;;
75435;SDS011;64014;53.432;14.534;2023-01-13T09:22:25;3.85;;;1.90;;
75435;SDS011;64014;53.432;14.534;2023-01-13T09:24:51;5.82;;;1.13;;
75435;SDS011;64014;53.432;14.534;2023-01-13T09:27:18;5.50;;;1.35;;
75435;SDS011;64014;53.432;14.534;2023-01-13T09:29:44;3.45;;;0.60;;
75435;SDS011;64014;53.432;14.534;2023-01-13T09:32:12;5.10;;;0.80;;
75435;SDS011;64014;53.432;14.534;2023-01-13T09:34:39;3.28;;;0.80;;
75435;SDS011;64014;53.432;14.534;2023-01-13T09:37:24;3.58;;;0.68;;
75435;SDS011;64014;53.432;14.534;2023-01-13T09:39:51;2.95;;;0.38;;
75435;SDS011;64014;53.432;14.534;2023-01-13T09:42:37;4.72;;;0.73;;
75435;SDS011;64014;53.432;14.534;2023-01-13T09:45:31;2.08;;;0.50;;
75435;SDS011;64014;53.432;14.534;2023-01-13T09:48:03;1.90;;;0.60;;
75435;SDS011;64014;53.432;14.534;2023-01-13T09:50:32;3.13;;;0.73;;
75435;SDS011;64014;53.432;14.534;2023-01-13T09:53:26;6.35;;;1.20;;
75435;SDS011;64014;53.432;14.534;2023-01-13T09:55:55;4.32;;;0.60;;
75435;SDS011;64014;53.432;14.534;2023-01-13T09:58:21;4.05;;;0.93;;
75435;SDS011;64014;53.432;14.534;2023-01-13T10:00:50;7.28;;;1.70;;
75435;SDS011;64014;53.432;14.534;2023-01-13T10:03:22;2.42;;;0.65;;
75435;SDS011;64014;53.432;14.534;2023-01-13T10:08:37;4.43;;;1.05;;
75435;SDS011;64014;53.432;14.534;2023-01-13T10:11:09;5.25;;;1.55;;
75435;SDS011;64014;53.432;14.534;2023-01-13T10:14:01;5.00;;;1.23;;
75435;SDS011;64014;53.432;14.534;2023-01-13T10:16:40;6.80;;;1.27;;
75435;SDS011;64014;53.432;14.534;2023-01-13T10:29:31;9.32;;;4.30;;
75435;SDS011;64014;53.432;14.534;2023-01-13T10:31:58;4.80;;;1.88;;
75435;SDS011;64014;53.432;14.534;2023-01-13T10:34:25;5.43;;;1.48;;
75435;SDS011;64014;53.432;14.534;2023-01-13T10:36:55;7.15;;;2.35;;
75435;SDS011;64014;53.432;14.534;2023-01-13T10:39:27;3.95;;;0.68;;
75435;SDS011;64014;53.432;14.534;2023-01-13T10:42:05;5.63;;;1.20;;
75435;SDS011;64014;53.432;14.534;2023-01-13T10:44:45;7.38;;;2.58;;
75435;SDS011;64014;53.432;14.534;2023-01-13T10:47:23;3.47;;;1.00;;
75435;SDS011;64014;53.432;14.534;2023-01-13T10:52:39;4.25;;;1.38;;
75435;SDS011;64014;53.432;14.534;2023-01-13T10:55:30;6.78;;;2.42;;
75435;SDS011;64014;53.432;14.534;2023-01-13T10:58:13;10.38;;;3.00;;
75435;SDS011;64014;53.432;14.534;2023-01-13T11:00:42;5.88;;;0.82;;
75435;SDS011;64014;53.432;14.534;2023-01-13T11:08:03;5.15;;;2.20;;
75435;SDS011;64014;53.432;14.534;2023-01-13T11:10:30;3.78;;;1.92;;
75435;SDS011;64014;53.432;14.534;2023-01-13T11:18:12;6.65;;;1.20;;
75435;SDS011;64014;53.432;14.534;2023-01-13T11:20:41;6.63;;;3.20;;
75435;SDS011;64014;53.432;14.534;2023-01-13T11:23:22;6.07;;;2.13;;
75435;SDS011;64014;53.432;14.534;2023-01-13T11:26:07;5.50;;;0.70;;
75435;SDS011;64014;53.432;14.534;2023-01-13T11:34:38;8.73;;;2.85;;
75435;SDS011;64014;53.432;14.534;2023-01-13T11:37:12;2.30;;;0.50;;
75435;SDS011;64014;53.432;14.534;2023-01-13T11:39:51;3.83;;;0.60;;
75435;SDS011;64014;53.432;14.534;2023-01-13T11:42:49;4.30;;;1.73;;
75435;SDS011;64014;53.432;14.534;2023-01-13T11:45:36;6.82;;;1.27;;
75435;SDS011;64014;53.432;14.534;2023-01-13T11:48:15;4.18;;;2.08;;
75435;SDS011;64014;53.432;14.534;2023-01-13T11:51:03;4.25;;;1.20;;
75435;SDS011;64014;53.432;14.534;2023-01-13T12:10:26;3.45;;;2.05;;
75435;SDS011;64014;53.432;14.534;2023-01-13T12:13:18;3.72;;;0.55;;
75435;SDS011;64014;53.432;14.534;2023-01-13T12:26:56;7.07;;;1.85;;
75435;SDS011;64014;53.432;14.534;2023-01-13T12:29:35;6.70;;;2.38;;
75435;SDS011;64014;53.432;14.534;2023-01-13T12:32:13;12.80;;;5.38;;
75435;SDS011;64014;53.432;14.534;2023-01-13T12:35:05;3.90;;;1.20;;
75435;SDS011;64014;53.432;14.534;2023-01-13T12:37:41;3.97;;;1.38;;
75435;SDS011;64014;53.432;14.534;2023-01-13T12:40:28;8.38;;;3.22;;
75435;SDS011;64014;53.432;14.534;2023-01-13T12:43:17;11.75;;;11.02;;
75435;SDS011;64014;53.432;14.534;2023-01-13T12:49:18;4.55;;;0.63;;
75435;SDS011;64014;53.432;14.534;2023-01-13T13:02:36;3.20;;;0.70;;
75435;SDS011;64014;53.432;14.534;2023-01-13T13:07:40;5.32;;;4.53;;
75435;SDS011;64014;53.432;14.534;2023-01-13T13:10:22;5.47;;;3.25;;
75435;SDS011;64014;53.432;14.534;2023-01-13T13:12:58;6.85;;;1.58;;
75435;SDS011;64014;53.432;14.534;2023-01-13T13:15:47;8.68;;;6.13;;
75435;SDS011;64014;53.432;14.534;2023-01-13T13:20:52;5.13;;;1.80;;
75435;SDS011;64014;53.432;14.534;2023-01-13T13:39:30;4.40;;;0.98;;
75435;SDS011;64014;53.432;14.534;2023-01-13T13:42:23;4.35;;;0.60;;
75435;SDS011;64014;53.432;14.534;2023-01-13T13:45:16;3.75;;;0.88;;
75435;SDS011;64014;53.432;14.534;2023-01-13T13:50:47;7.50;;;1.13;;
75435;SDS011;64014;53.432;14.534;2023-01-13T13:53:14;7.32;;;1.05;;
75435;SDS011;64014;53.432;14.534;2023-01-13T13:55:56;5.07;;;2.05;;
75435;SDS011;64014;53.432;14.534;2023-01-13T13:58:27;4.28;;;0.52;;
75435;SDS011;64014;53.432;14.534;2023-01-13T14:03:26;4.55;;;1.20;;
75435;SDS011;64014;53.432;14.534;2023-01-13T14:06:19;3.75;;;1.23;;
75435;SDS011;64014;53.432;14.534;2023-01-13T14:08:47;4.45;;;0.80;;
75435;SDS011;64014;53.432;14.534;2023-01-13T14:11:27;6.25;;;1.42;;
75435;SDS011;64014;53.432;14.534;2023-01-13T14:16:29;1.77;;;0.63;;
75435;SDS011;64014;53.432;14.534;2023-01-13T14:18:56;2.53;;;0.60;;
75435;SDS011;64014;53.432;14.534;2023-01-13T14:21:23;6.65;;;0.85;;
75435;SDS011;64014;53.432;14.534;2023-01-13T14:26:39;6.45;;;1.15;;
75435;SDS011;64014;53.432;14.534;2023-01-13T14:29:05;6.32;;;0.77;;
75435;SDS011;64014;53.432;14.534;2023-01-13T14:31:37;3.85;;;0.95;;
75435;SDS011;64014;53.432;14.534;2023-01-13T14:34:04;3.67;;;0.85;;
75435;SDS011;64014;53.432;14.534;2023-01-13T14:43:56;4.32;;;0.90;;
75435;SDS011;64014;53.432;14.534;2023-01-13T14:46:23;4.55;;;0.93;;
75435;SDS011;64014;53.432;14.534;2023-01-13T14:49:00;7.10;;;1.38;;
75435;SDS011;64014;53.432;14.534;2023-01-13T14:51:26;4.20;;;0.98;;
75435;SDS011;64014;53.432;14.534;2023-01-13T14:53:53;3.47;;;0.63;;
75435;SDS011;64014;53.432;14.534;2023-01-13T15:02:38;5.05;;;1.23;;
75435;SDS011;64014;53.432;14.534;2023-01-13T15:10:44;5.00;;;0.60;;
75435;SDS011;64014;53.432;14.534;2023-01-13T15:15:54;2.42;;;0.50;;
75435;SDS011;64014;53.432;14.534;2023-01-13T15:18:22;6.03;;;0.65;;
75435;SDS011;64014;53.432;14.534;2023-01-13T15:20:49;7.60;;;1.52;;
75435;SDS011;64014;53.432;14.534;2023-01-13T15:23:18;5.65;;;2.50;;
75435;SDS011;64014;53.432;14.534;2023-01-13T15:25:44;5.32;;;1.48;;
75435;SDS011;64014;53.432;14.534;2023-01-13T15:28:20;3.92;;;0.65;;
75435;SDS011;64014;53.432;14.534;2023-01-13T15:30:50;5.47;;;0.70;;
75435;SDS011;64014;53.432;14.534;2023-01-13T15:33:17;7.70;;;0.50;;
75435;SDS011;64014;53.432;14.534;2023-01-13T15:35:45;4.63;;;0.60;;
75435;SDS011;64014;53.432;14.534;2023-01-13T15:38:14;3.40;;;0.82;;
75435;SDS011;64014;53.432;14.534;2023-01-13T15:40:43;2.70;;;1.17;;
75435;SDS011;64014;53.432;14.534;2023-01-13T15:43:13;4.60;;;0.95;;
75435;SDS011;64014;53.432;14.534;2023-01-13T15:46:14;4.63;;;1.02;;
75435;SDS011;64014;53.432;14.534;2023-01-13T15:49:01;5.55;;;0.90;;
75435;SDS011;64014;53.432;14.534;2023-01-13T15:51:36;6.72;;;1.58;;
75435;SDS011;64014;53.432;14.534;2023-01-13T15:54:04;4.90;;;0.95;;
75435;SDS011;64014;53.432;14.534;2023-01-13T15:56:34;9.23;;;1.42;;
75435;SDS011;64014;53.432;14.534;2023-01-13T15:59:02;6.85;;;1.17;;
75435;SDS011;64014;53.432;14.534;2023-01-13T16:01:29;5.78;;;1.17;;
75435;SDS011;64014;53.432;14.534;2023-01-13T16:03:54;4.22;;;1.10;;
75435;SDS011;64014;53.432;14.534;2023-01-13T16:06:25;4.28;;;1.08;;
75435;SDS011;64014;53.432;14.534;2023-01-13T16:08:56;6.38;;;0.80;;
75435;SDS011;64014;53.432;14.534;2023-01-13T16:11:22;6.93;;;2.10;;
75435;SDS011;64014;53.432;14.534;2023-01-13T16:13:48;3.90;;;0.95;;
75435;SDS011;64014;53.432;14.534;2023-01-13T16:16:16;6.32;;;1.73;;
75435;SDS011;64014;53.432;14.534;2023-01-13T16:18:42;11.75;;;5.07;;
75435;SDS011;64014;53.432;14.534;2023-01-13T16:21:10;7.75;;;1.67;;
75435;SDS011;64014;53.432;14.534;2023-01-13T16:23:37;8.00;;;1.48;;
75435;SDS011;64014;53.432;14.534;2023-01-13T16:26:06;4.35;;;0.98;;
75435;SDS011;64014;53.432;14.534;2023-01-13T16:28:39;6.35;;;2.38;;
75435;SDS011;64014;53.432;14.534;2023-01-13T16:31:20;6.05;;;1.30;;
75435;SDS011;64014;53.432;14.534;2023-01-13T16:33:49;5.13;;;0.65;;
75435;SDS011;64014;53.432;14.534;2023-01-13T16:36:16;11.65;;;2.50;;
75435;SDS011;64014;53.432;14.534;2023-01-13T16:38:43;6.53;;;1.00;;
75435;SDS011;64014;53.432;14.534;2023-01-13T16:41:09;11.13;;;2.00;;
75435;SDS011;64014;53.432;14.534;2023-01-13T16:43:35;6.63;;;1.48;;
75435;SDS011;64014;53.432;14.534;2023-01-13T16:46:00;5.93;;;1.00;;
75435;SDS011;64014;53.432;14.534;2023-01-13T16:48:26;5.97;;;0.80;;
75435;SDS011;64014;53.432;14.534;2023-01-13T16:50:52;7.15;;;1.83;;
75435;SDS011;64014;53.432;14.534;2023-01-13T16:53:18;7.55;;;1.83;;
75435;SDS011;64014;53.432;14.534;2023-01-13T16:55:44;6.13;;;0.88;;
75435;SDS011;64014;53.432;14.534;2023-01-13T16:58:19;3.97;;;0.70;;
75435;SDS011;64014;53.432;14.534;2023-01-13T17:00:45;6.10;;;2.35;;
75435;SDS011;64014;53.432;14.534;2023-01-13T17:03:12;3.63;;;1.00;;
75435;SDS011;64014;53.432;14.534;2023-01-13T17:05:39;7.82;;;1.40;;
75435;SDS011;64014;53.432;14.534;2023-01-13T17:08:09;15.32;;;7.07;;
75435;SDS011;64014;53.432;14.534;2023-01-13T17:10:41;7.28;;;2.30;;
75435;SDS011;64014;53.432;14.534;2023-01-13T17:13:08;9.35;;;1.98;;
75435;SDS011;64014;53.432;14.534;2023-01-13T17:15:34;8.65;;;1.88;;
75435;SDS011;64014;53.432;14.534;2023-01-13T17:18:00;7.25;;;1.25;;
75435;SDS011;64014;53.432;14.534;2023-01-13T17:20:26;6.40;;;1.25;;
75435;SDS011;64014;53.432;14.534;2023-01-13T17:22:52;10.20;;;3.55;;
75435;SDS011;64014;53.432;14.534;2023-01-13T17:25:18;4.15;;;0.38;;
75435;SDS011;64014;53.432;14.534;2023-01-13T17:27:44;6.57;;;1.33;;
75435;SDS011;64014;53.432;14.534;2023-01-13T17:30:10;4.07;;;0.93;;
75435;SDS011;64014;53.432;14.534;2023-01-13T17:32:38;5.22;;;1.10;;
75435;SDS011;64014;53.432;14.534;2023-01-13T17:35:05;9.50;;;3.03;;
75435;SDS011;64014;53.432;14.534;2023-01-13T17:37:32;6.93;;;1.40;;
75435;SDS011;64014;53.432;14.534;2023-01-13T17:39:58;3.28;;;0.73;;
75435;SDS011;64014;53.432;14.534;2023-01-13T17:42:25;3.90;;;0.65;;